Time;durP1;ratioP1;P1;durP2;ratioP2;P2;SDS_P1;SDS_P2;PMS_P1;PMS_P2;Temp;Humidity;BMP_temperature;BMP_pressure;BME280_temperature;BME280_humidity;BME280_pressure;Samples;Min_cycle;Max_cycle;Signal;HPM_P1;HPM_P2
2023/09/25 00:01:31;;;;;;;6.60;4.32;;;;;;;;;;5068830;28;20094;-58
2023/09/25 00:03:56;;;;;;;2.70;2.47;;;;;;;;;;5070095;28;20016;-59
2023/09/25 00:06:21;;;;;;;3.42;2.63;;;;;;;;;;5068620;28;20542;-59
2023/09/25 00:08:46;;;;;;;8.00;5.15;;;;;;;;;;5069716;28;20031;-59
2023/09/25 00:11:11;;;;;;;4.35;3.10;;;;;;;;;;5068606;28;20041;-59
2023/09/25 00:13:36;;;;;;;5.35;2.75;;;;;;;;;;5070347;28;20056;-59
2023/09/25 00:16:02;;;;;;;5.03;4.00;;;;;;;;;;5069163;28;20063;-59
2023/09/25 00:18:27;;;;;;;3.78;3.05;;;;;;;;;;5070368;28;20024;-59
2023/09/25 00:20:53;;;;;;;4.05;2.80;;;;;;;;;;5068809;28;20036;-59
2023/09/25 00:23:18;;;;;;;5.13;3.17;;;;;;;;;;5070612;28;20021;-60
2023/09/25 00:25:44;;;;;;;5.18;4.68;;;;;;;;;;5068471;28;20605;-59
2023/09/25 00:28:09;;;;;;;13.67;4.40;;;;;;;;;;5070154;28;20028;-60
2023/09/25 00:30:34;;;;;;;3.65;3.28;;;;;;;;;;5068838;28;20059;-59
2023/09/25 00:32:59;;;;;;;4.10;3.67;;;;;;;;;;5069942;28;20047;-58
2023/09/25 00:35:24;;;;;;;6.27;3.30;;;;;;;;;;5068414;28;20818;-58
2023/09/25 00:37:49;;;;;;;3.10;2.78;;;;;;;;;;5069909;28;20821;-58
2023/09/25 00:40:24;;;;;;;5.60;3.00;;;;;;;;;;5068028;28;20367;-58
2023/09/25 00:42:50;;;;;;;4.88;3.47;;;;;;;;;;5069894;28;20024;-58
2023/09/25 00:45:16;;;;;;;6.00;3.83;;;;;;;;;;5068970;28;20021;-58
2023/09/25 00:47:42;;;;;;;4.78;4.47;;;;;;;;;;5069548;28;20090;-58
2023/09/25 00:50:07;;;;;;;4.55;4.00;;;;;;;;;;5069886;28;20021;-58
2023/09/25 00:52:33;;;;;;;4.25;3.90;;;;;;;;;;5074447;28;20051;-58
2023/09/25 00:54:59;;;;;;;3.72;3.42;;;;;;;;;;5072328;28;20009;-54
2023/09/25 00:57:25;;;;;;;6.60;5.45;;;;;;;;;;5072709;28;20027;-58
2023/09/25 00:59:50;;;;;;;4.05;3.50;;;;;;;;;;5073832;28;20036;-58
2023/09/25 01:02:16;;;;;;;4.43;4.03;;;;;;;;;;5072364;28;20484;-59
2023/09/25 01:04:41;;;;;;;5.13;4.03;;;;;;;;;;5072534;28;20471;-59
2023/09/25 01:07:06;;;;;;;4.73;4.27;;;;;;;;;;5071566;28;20067;-59
2023/09/25 01:09:31;;;;;;;3.93;3.20;;;;;;;;;;5073370;28;20062;-58
2023/09/25 01:11:57;;;;;;;3.97;3.67;;;;;;;;;;5070413;28;20065;-58
2023/09/25 01:14:22;;;;;;;5.40;3.60;;;;;;;;;;5071868;28;20065;-57
2023/09/25 01:16:47;;;;;;;3.03;2.83;;;;;;;;;;5071307;28;20101;-56
2023/09/25 01:19:13;;;;;;;4.45;3.78;;;;;;;;;;5072728;28;20512;-58
2023/09/25 01:21:42;;;;;;;4.53;4.13;;;;;;;;;;5070025;28;20032;-58
2023/09/25 01:24:07;;;;;;;5.35;3.75;;;;;;;;;;5073333;28;20029;-58
2023/09/25 01:26:32;;;;;;;4.67;4.27;;;;;;;;;;5071315;28;20119;-58
2023/09/25 01:28:57;;;;;;;7.07;4.50;;;;;;;;;;5072961;28;20444;-58
2023/09/25 01:31:23;;;;;;;3.97;3.43;;;;;;;;;;5071869;28;20029;-60
2023/09/25 01:33:48;;;;;;;3.95;3.65;;;;;;;;;;5072569;28;20045;-60
2023/09/25 01:36:13;;;;;;;5.37;4.87;;;;;;;;;;5071781;28;20036;-61
2023/09/25 01:38:38;;;;;;;8.77;4.70;;;;;;;;;;5071539;28;20039;-60
2023/09/25 01:41:03;;;;;;;6.10;4.93;;;;;;;;;;5070859;28;20467;-60
2023/09/25 01:43:29;;;;;;;5.70;5.10;;;;;;;;;;5072888;28;20446;-60
2023/09/25 01:45:54;;;;;;;5.18;4.70;;;;;;;;;;5071499;28;20037;-61
2023/09/25 01:48:19;;;;;;;5.65;4.75;;;;;;;;;;5072836;28;20021;-64
2023/09/25 01:50:44;;;;;;;5.07;4.53;;;;;;;;;;5070879;28;20045;-60
2023/09/25 01:53:09;;;;;;;6.33;5.30;;;;;;;;;;5072968;28;20028;-60
2023/09/25 01:55:39;;;;;;;6.95;4.72;;;;;;;;;;5071116;28;20067;-60
2023/09/25 01:58:06;;;;;;;4.85;4.20;;;;;;;;;;5072910;28;20119;-61
2023/09/25 02:00:31;;;;;;;5.95;4.25;;;;;;;;;;5070995;28;20104;-61
2023/09/25 02:02:56;;;;;;;6.10;4.55;;;;;;;;;;5072469;28;20017;-61
2023/09/25 02:05:21;;;;;;;7.47;4.72;;;;;;;;;;5071330;28;20024;-60
2023/09/25 02:07:47;;;;;;;5.97;4.17;;;;;;;;;;5072095;28;20070;-61
2023/09/25 02:10:13;;;;;;;5.88;5.30;;;;;;;;;;5070766;28;20089;-61
2023/09/25 02:12:38;;;;;;;8.82;5.22;;;;;;;;;;5072167;28;20048;-60
2023/09/25 02:15:05;;;;;;;5.50;5.00;;;;;;;;;;5069703;28;20400;-60
2023/09/25 02:17:30;;;;;;;7.35;4.43;;;;;;;;;;5072069;28;20032;-60
2023/09/25 02:20:03;;;;;;;5.20;4.70;;;;;;;;;;5072182;28;20073;-59
2023/09/25 02:22:28;;;;;;;6.22;4.47;;;;;;;;;;5070981;28;20029;-74
2023/09/25 02:24:53;;;;;;;5.60;5.10;;;;;;;;;;5071936;28;20024;-60
2023/09/25 02:27:18;;;;;;;6.32;5.45;;;;;;;;;;5070841;28;20125;-63
2023/09/25 02:29:44;;;;;;;14.70;5.93;;;;;;;;;;5071791;28;20056;-61
2023/09/25 02:32:09;;;;;;;7.33;6.63;;;;;;;;;;5070555;28;20040;-60
2023/09/25 02:34:34;;;;;;;5.28;4.57;;;;;;;;;;5071448;28;20110;-60
2023/09/25 02:36:59;;;;;;;5.50;5.00;;;;;;;;;;5065062;28;20033;-60
2023/09/25 02:39:24;;;;;;;5.87;5.17;;;;;;;;;;5050406;28;20463;-60
2023/09/25 02:41:49;;;;;;;4.88;4.40;;;;;;;;;;5066172;28;20033;-60
2023/09/25 02:44:14;;;;;;;6.25;5.70;;;;;;;;;;5072204;28;20142;-60
2023/09/25 02:46:40;;;;;;;14.52;5.75;;;;;;;;;;5069594;28;20040;-59
2023/09/25 02:49:05;;;;;;;7.50;5.95;;;;;;;;;;5071795;28;20021;-60
2023/09/25 02:51:30;;;;;;;5.45;4.95;;;;;;;;;;5070108;28;20415;-60
2023/09/25 02:53:55;;;;;;;9.60;5.80;;;;;;;;;;5071248;28;20027;-61
2023/09/25 02:56:20;;;;;;;6.17;5.57;;;;;;;;;;5070338;28;20525;-60
2023/09/25 02:58:46;;;;;;;6.07;5.13;;;;;;;;;;5069757;28;20451;-59
2023/09/25 03:01:11;;;;;;;6.25;5.07;;;;;;;;;;5060083;28;20503;-59
2023/09/25 03:03:36;;;;;;;6.72;5.40;;;;;;;;;;5051735;28;20017;-60
2023/09/25 03:06:01;;;;;;;5.50;4.97;;;;;;;;;;5059416;28;20024;-60
2023/09/25 03:08:27;;;;;;;5.78;5.28;;;;;;;;;;5071322;28;20438;-60
2023/09/25 03:10:52;;;;;;;7.75;5.35;;;;;;;;;;5069368;28;20085;-60
2023/09/25 03:13:17;;;;;;;6.32;5.25;;;;;;;;;;5070380;28;20047;-60
2023/09/25 03:15:42;;;;;;;5.20;4.72;;;;;;;;;;5069484;28;20040;-60
2023/09/25 03:18:07;;;;;;;5.93;5.13;;;;;;;;;;5070990;28;20052;-60
2023/09/25 03:20:33;;;;;;;8.30;5.67;;;;;;;;;;5069915;28;20400;-60
2023/09/25 03:22:58;;;;;;;7.53;4.43;;;;;;;;;;5071400;28;20036;-60
2023/09/25 03:25:23;;;;;;;6.38;5.53;;;;;;;;;;5068129;28;20502;-60
2023/09/25 03:27:49;;;;;;;5.63;5.13;;;;;;;;;;5064965;28;20146;-65
2023/09/25 03:30:14;;;;;;;7.45;5.60;;;;;;;;;;5057314;28;20025;-60
2023/09/25 03:32:39;;;;;;;6.22;4.53;;;;;;;;;;5070548;28;20036;-60
2023/09/25 03:35:05;;;;;;;5.23;4.30;;;;;;;;;;5069571;28;20036;-60
2023/09/25 03:37:30;;;;;;;6.32;4.25;;;;;;;;;;5052617;28;20447;-60
2023/09/25 03:39:55;;;;;;;5.10;4.68;;;;;;;;;;5068931;28;20103;-59
2023/09/25 03:42:20;;;;;;;6.07;5.10;;;;;;;;;;5064993;28;20423;-60
2023/09/25 03:44:45;;;;;;;5.75;5.22;;;;;;;;;;5050815;28;20841;-61
2023/09/25 03:47:11;;;;;;;4.43;4.07;;;;;;;;;;5067530;28;20051;-60
2023/09/25 03:49:37;;;;;;;4.27;3.87;;;;;;;;;;5070524;28;20528;-60
2023/09/25 03:52:02;;;;;;;5.90;4.30;;;;;;;;;;5069425;28;20062;-60
2023/09/25 03:54:27;;;;;;;5.00;4.57;;;;;;;;;;5070201;28;20062;-62
2023/09/25 03:56:52;;;;;;;6.40;4.75;;;;;;;;;;5068880;28;20040;-61
2023/09/25 03:59:17;;;;;;;5.68;4.72;;;;;;;;;;5070630;28;20024;-60
2023/09/25 04:01:42;;;;;;;6.63;3.77;;;;;;;;;;5068822;28;20038;-61
2023/09/25 04:04:07;;;;;;;7.43;4.72;;;;;;;;;;5056415;28;20648;-60
2023/09/25 04:06:33;;;;;;;5.03;3.97;;;;;;;;;;5062760;28;20036;-60
2023/09/25 04:08:59;;;;;;;5.32;4.75;;;;;;;;;;5070009;28;20021;-61
2023/09/25 04:11:24;;;;;;;6.03;3.40;;;;;;;;;;5068700;28;20047;-62
2023/09/25 04:13:49;;;;;;;5.75;5.25;;;;;;;;;;5069704;28;20075;-62
2023/09/25 04:16:14;;;;;;;5.65;4.15;;;;;;;;;;5066133;28;20048;-60
2023/09/25 04:18:40;;;;;;;5.00;4.40;;;;;;;;;;5065675;28;20020;-60
2023/09/25 04:21:11;;;;;;;5.93;4.38;;;;;;;;;;5068288;28;20491;-60
2023/09/25 04:23:36;;;;;;;4.50;4.03;;;;;;;;;;5069854;28;20020;-60
2023/09/25 04:26:01;;;;;;;3.53;3.23;;;;;;;;;;5066859;28;20032;-60
2023/09/25 04:28:28;;;;;;;10.73;5.38;;;;;;;;;;5061306;28;20391;-60
2023/09/25 04:30:53;;;;;;;6.00;3.85;;;;;;;;;;5068330;28;20086;-60
2023/09/25 04:33:19;;;;;;;4.47;3.90;;;;;;;;;;5069000;28;20471;-63
2023/09/25 04:35:44;;;;;;;4.32;3.92;;;;;;;;;;5068600;28;20036;-60
2023/09/25 04:38:09;;;;;;;5.13;4.63;;;;;;;;;;5052131;28;20033;-60
2023/09/25 04:40:34;;;;;;;3.85;3.47;;;;;;;;;;5068679;28;20503;-60
2023/09/25 04:43:00;;;;;;;3.80;3.50;;;;;;;;;;5070476;28;20021;-60
2023/09/25 04:45:25;;;;;;;4.70;4.20;;;;;;;;;;5068641;28;20177;-60
2023/09/25 04:47:55;;;;;;;7.53;3.92;;;;;;;;;;5070008;28;20476;-60
2023/09/25 04:50:20;;;;;;;6.97;4.70;;;;;;;;;;5068816;28;20463;-60
2023/09/25 04:52:45;;;;;;;9.13;4.88;;;;;;;;;;5070113;28;20095;-68
2023/09/25 04:55:11;;;;;;;4.30;3.90;;;;;;;;;;5068947;28;20032;-59
2023/09/25 04:57:37;;;;;;;5.60;4.25;;;;;;;;;;5069746;28;20052;-60
2023/09/25 05:00:12;;;;;;;4.10;3.58;;;;;;;;;;5068412;28;20092;-59
2023/09/25 05:02:37;;;;;;;4.43;4.03;;;;;;;;;;5069926;28;20558;-59
2023/09/25 05:05:03;;;;;;;12.05;4.95;;;;;;;;;;5068809;28;20019;-59
2023/09/25 05:07:28;;;;;;;4.53;4.05;;;;;;;;;;5069724;28;20408;-60
2023/09/25 05:09:53;;;;;;;3.88;3.58;;;;;;;;;;5070058;28;20556;-69
2023/09/25 05:12:18;;;;;;;6.60;4.47;;;;;;;;;;5068772;28;20039;-60
2023/09/25 05:14:43;;;;;;;5.03;4.53;;;;;;;;;;5069586;28;20044;-60
2023/09/25 05:17:08;;;;;;;6.53;3.87;;;;;;;;;;5068531;28;20445;-61
2023/09/25 05:19:33;;;;;;;5.72;3.83;;;;;;;;;;5069961;28;20065;-61
2023/09/25 05:21:59;;;;;;;6.00;3.55;;;;;;;;;;5068038;28;20048;-62
2023/09/25 05:24:24;;;;;;;4.70;4.22;;;;;;;;;;5068447;28;20026;-62
2023/09/25 05:26:49;;;;;;;3.87;3.57;;;;;;;;;;5068367;28;20058;-61
2023/09/25 05:29:14;;;;;;;9.13;3.97;;;;;;;;;;5069543;28;20026;-62
2023/09/25 05:31:39;;;;;;;4.05;3.75;;;;;;;;;;5068128;28;20511;-61
2023/09/25 05:34:04;;;;;;;4.03;3.35;;;;;;;;;;5069893;28;20114;-61
2023/09/25 05:36:30;;;;;;;5.03;2.92;;;;;;;;;;5070352;28;20047;-62
2023/09/25 05:38:55;;;;;;;9.23;4.13;;;;;;;;;;5072995;28;20048;-61
2023/09/25 05:41:20;;;;;;;6.20;3.33;;;;;;;;;;5072080;28;20086;-62
2023/09/25 05:43:46;;;;;;;4.50;3.47;;;;;;;;;;5073007;28;20427;-61
2023/09/25 05:46:11;;;;;;;4.72;3.63;;;;;;;;;;5071561;28;20036;-61
2023/09/25 05:48:37;;;;;;;5.95;3.10;;;;;;;;;;5072979;28;20029;-62
2023/09/25 05:51:02;;;;;;;6.72;3.85;;;;;;;;;;5061245;28;20033;-62
2023/09/25 05:53:27;;;;;;;4.47;3.83;;;;;;;;;;5053112;28;20100;-61
2023/09/25 05:55:53;;;;;;;7.05;3.50;;;;;;;;;;5059338;28;20037;-62
2023/09/25 05:58:18;;;;;;;4.13;3.70;;;;;;;;;;5073059;28;20029;-62
2023/09/25 06:00:46;;;;;;;3.72;3.38;;;;;;;;;;5070875;28;20055;-61
2023/09/25 06:03:11;;;;;;;;;;;;;;;;;;5073548;28;20332;-59
2023/09/25 06:05:37;;;;;;;3.78;3.47;;;;;;;;;;5071039;28;20294;-58
2023/09/25 06:08:02;;;;;;;17.13;5.67;;;;;;;;;;5072585;28;20032;-60
2023/09/25 06:10:27;;;;;;;4.55;3.13;;;;;;;;;;5070957;28;20121;-59
2023/09/25 06:12:52;;;;;;;3.27;2.97;;;;;;;;;;5071016;28;20024;-59
2023/09/25 06:15:18;;;;;;;3.40;3.10;;;;;;;;;;5062356;28;20090;-62
2023/09/25 06:17:43;;;;;;;7.28;2.92;;;;;;;;;;5062301;28;20955;-59
2023/09/25 06:20:15;;;;;;;3.13;2.93;;;;;;;;;;5070988;28;20519;-58
2023/09/25 06:22:40;;;;;;;5.60;3.72;;;;;;;;;;5071982;28;20490;-58
2023/09/25 06:25:11;;;;;;;4.25;3.00;;;;;;;;;;5071080;28;20020;-57
2023/09/25 06:27:36;;;;;;;8.00;3.30;;;;;;;;;;5071698;28;20009;-58
2023/09/25 06:30:01;;;;;;;4.60;3.50;;;;;;;;;;5070855;28;20417;-57
2023/09/25 06:32:26;;;;;;;5.00;3.27;;;;;;;;;;5072242;28;20967;-57
2023/09/25 06:34:51;;;;;;;7.03;4.72;;;;;;;;;;5072362;28;20917;-57
2023/09/25 06:37:16;;;;;;;4.37;3.03;;;;;;;;;;5070583;28;20090;-57
2023/09/25 06:39:42;;;;;;;4.32;3.97;;;;;;;;;;5072210;28;20028;-57
2023/09/25 06:42:07;;;;;;;4.07;3.33;;;;;;;;;;5070614;28;20090;-58
2023/09/25 06:44:32;;;;;;;5.22;2.88;;;;;;;;;;5072076;28;20104;-57
2023/09/25 06:46:58;;;;;;;4.90;3.53;;;;;;;;;;5069688;28;20032;-57
2023/09/25 06:49:23;;;;;;;2.72;2.38;;;;;;;;;;5071944;28;20467;-58
2023/09/25 06:51:48;;;;;;;8.30;3.40;;;;;;;;;;5069729;28;20448;-58
2023/09/25 06:54:13;;;;;;;11.87;2.83;;;;;;;;;;5072081;28;20454;-58
2023/09/25 06:56:39;;;;;;;4.32;2.20;;;;;;;;;;5070016;28;20033;-58
2023/09/25 06:59:04;;;;;;;3.08;2.60;;;;;;;;;;5071857;28;20046;-57
2023/09/25 07:01:30;;;;;;;4.75;2.90;;;;;;;;;;5070526;28;20514;-57
2023/09/25 07:03:55;;;;;;;3.55;3.25;;;;;;;;;;5071733;28;20070;-58
2023/09/25 07:06:20;;;;;;;3.47;2.33;;;;;;;;;;5069980;28;20506;-58
2023/09/25 07:08:46;;;;;;;3.00;2.75;;;;;;;;;;5068611;28;20122;-58
2023/09/25 07:11:11;;;;;;;3.40;2.83;;;;;;;;;;5058974;28;20043;-58
2023/09/25 07:13:36;;;;;;;3.45;3.13;;;;;;;;;;5051088;28;20104;-58
2023/09/25 07:16:06;;;;;;;7.50;2.40;;;;;;;;;;5050181;28;20053;-58
2023/09/25 07:18:31;;;;;;;4.68;3.25;;;;;;;;;;5051088;28;20470;-58
2023/09/25 07:20:56;;;;;;;7.70;2.87;;;;;;;;;;5049365;28;20033;-58
2023/09/25 07:23:22;;;;;;;3.95;3.42;;;;;;;;;;5051112;28;20346;-59
2023/09/25 07:25:47;;;;;;;5.63;2.88;;;;;;;;;;5049429;28;20391;-58
2023/09/25 07:28:12;;;;;;;3.38;2.90;;;;;;;;;;5066364;28;20441;-58
2023/09/25 07:30:46;;;;;;;3.22;2.83;;;;;;;;;;5048973;28;20040;-58
2023/09/25 07:33:12;;;;;;;8.93;3.38;;;;;;;;;;5050414;28;20045;-57
2023/09/25 07:35:37;;;;;;;6.93;3.38;;;;;;;;;;5047862;28;20114;-58
2023/09/25 07:38:03;;;;;;;3.50;3.20;;;;;;;;;;5051090;28;20404;-58
2023/09/25 07:40:29;;;;;;;3.25;2.55;;;;;;;;;;5049447;28;21005;-58
2023/09/25 07:42:54;;;;;;;3.70;3.27;;;;;;;;;;5050413;28;20043;-58
2023/09/25 07:45:22;;;;;;;5.55;3.78;;;;;;;;;;5049564;28;20981;-57
2023/09/25 07:47:48;;;;;;;2.13;1.80;;;;;;;;;;5050681;28;20021;-57
2023/09/25 07:50:13;;;;;;;4.50;3.30;;;;;;;;;;5049307;28;20025;-58
2023/09/25 07:52:39;;;;;;;5.22;2.47;;;;;;;;;;5050725;28;20491;-58
2023/09/25 07:55:07;;;;;;;7.93;2.58;;;;;;;;;;5049372;28;20039;-58
2023/09/25 07:57:35;;;;;;;;;;;;;;;;;;5050837;28;20037;-58
2023/09/25 08:00:00;;;;;;;6.23;2.43;;;;;;;;;;5049376;28;19909;-57
2023/09/25 08:02:25;;;;;;;7.03;3.37;;;;;;;;;;5050875;28;20664;-59
2023/09/25 08:04:51;;;;;;;5.28;2.42;;;;;;;;;;5050463;28;20025;-58
2023/09/25 08:07:18;;;;;;;8.32;2.42;;;;;;;;;;5049137;28;20052;-58
2023/09/25 08:09:43;;;;;;;4.40;3.20;;;;;;;;;;5050301;28;20151;-58
2023/09/25 08:12:08;;;;;;;3.78;2.92;;;;;;;;;;5048736;28;20116;-58
2023/09/25 08:14:33;;;;;;;3.90;2.33;;;;;;;;;;5051058;28;20139;-58
2023/09/25 08:16:59;;;;;;;7.87;2.70;;;;;;;;;;5048909;28;20608;-58
2023/09/25 08:19:24;;;;;;;6.47;3.25;;;;;;;;;;5050209;28;20067;-58
2023/09/25 08:21:50;;;;;;;7.45;3.13;;;;;;;;;;5048299;28;20483;-58
2023/09/25 08:24:16;;;;;;;3.00;2.67;;;;;;;;;;5050559;28;20127;-58
2023/09/25 08:26:41;;;;;;;4.13;2.40;;;;;;;;;;5043486;28;20033;-58
2023/09/25 08:29:06;;;;;;;3.47;2.73;;;;;;;;;;5065826;28;20028;-58
2023/09/25 08:31:32;;;;;;;4.93;2.33;;;;;;;;;;5068781;28;20537;-58
2023/09/25 08:33:57;;;;;;;6.72;2.50;;;;;;;;;;5069898;28;20045;-62
2023/09/25 08:36:23;;;;;;;4.83;2.20;;;;;;;;;;5068491;28;20534;-58
2023/09/25 08:38:48;;;;;;;3.22;2.55;;;;;;;;;;5064083;28;20086;-59
2023/09/25 08:41:13;;;;;;;5.03;3.17;;;;;;;;;;5057353;28;20029;-58
2023/09/25 08:43:40;;;;;;;3.60;2.17;;;;;;;;;;5069296;28;20069;-58
2023/09/25 08:46:05;;;;;;;4.32;1.85;;;;;;;;;;5054836;28;20055;-58
2023/09/25 08:48:30;;;;;;;3.72;1.98;;;;;;;;;;5050018;28;20071;-58
2023/09/25 08:50:56;;;;;;;7.47;2.37;;;;;;;;;;5048019;28;20045;-58
2023/09/25 08:53:22;;;;;;;7.25;2.75;;;;;;;;;;5050074;28;20036;-58
2023/09/25 08:55:47;;;;;;;3.85;1.88;;;;;;;;;;5068126;28;20035;-58
2023/09/25 08:58:13;;;;;;;9.83;4.07;;;;;;;;;;5056487;28;20016;-58
2023/09/25 09:00:38;;;;;;;6.25;3.22;;;;;;;;;;5048290;28;20573;-58
2023/09/25 09:03:04;;;;;;;3.90;1.98;;;;;;;;;;5049898;28;20106;-58
2023/09/25 09:05:29;;;;;;;2.92;2.25;;;;;;;;;;5048160;28;20041;-59
2023/09/25 09:07:55;;;;;;;2.57;2.33;;;;;;;;;;5049594;28;20522;-60
2023/09/25 09:10:20;;;;;;;3.42;2.20;;;;;;;;;;5048797;28;20033;-59
2023/09/25 09:12:53;;;;;;;6.57;2.40;;;;;;;;;;5052970;28;20116;-58
2023/09/25 09:15:28;;;;;;;5.03;2.30;;;;;;;;;;5052206;28;20037;-59
2023/09/25 09:17:54;;;;;;;3.17;2.20;;;;;;;;;;5065298;28;20029;-59
2023/09/25 09:20:20;;;;;;;2.22;1.77;;;;;;;;;;5068788;28;20095;-58
2023/09/25 09:22:48;;;;;;;5.78;2.83;;;;;;;;;;5053096;28;20052;-58
2023/09/25 09:25:14;;;;;;;3.78;2.35;;;;;;;;;;5052074;28;20067;-58
2023/09/25 09:27:39;;;;;;;4.28;2.10;;;;;;;;;;5052847;28;20021;-59
2023/09/25 09:30:18;;;;;;;3.20;2.60;;;;;;;;;;5051964;28;20024;-58
2023/09/25 09:32:43;;;;;;;3.10;2.00;;;;;;;;;;5052819;28;20043;-60
2023/09/25 09:35:13;;;;;;;2.30;2.00;;;;;;;;;;5062748;28;20016;-58
2023/09/25 09:37:39;;;;;;;7.50;3.80;;;;;;;;;;5073072;28;20016;-58
2023/09/25 09:40:11;;;;;;;3.28;2.22;;;;;;;;;;5071768;28;20066;-58
2023/09/25 09:42:36;;;;;;;2.72;1.77;;;;;;;;;;5072936;28;20095;-58
2023/09/25 09:45:02;;;;;;;5.00;2.57;;;;;;;;;;5071617;28;20104;-59
2023/09/25 09:47:27;;;;;;;3.88;2.85;;;;;;;;;;5070698;28;20525;-59
2023/09/25 09:49:53;;;;;;;3.90;2.53;;;;;;;;;;5072142;28;20394;-59
2023/09/25 09:52:19;;;;;;;4.43;2.05;;;;;;;;;;5071425;28;20497;-59
2023/09/25 09:54:47;;;;;;;3.90;2.47;;;;;;;;;;5072834;28;20107;-59
2023/09/25 09:57:12;;;;;;;2.83;1.77;;;;;;;;;;5071093;28;20096;-58
2023/09/25 09:59:37;;;;;;;2.78;1.85;;;;;;;;;;5072817;28;20024;-59
2023/09/25 10:02:03;;;;;;;3.53;2.30;;;;;;;;;;5071548;28;20111;-67
2023/09/25 10:04:28;;;;;;;6.85;2.55;;;;;;;;;;5067557;28;20383;-59
2023/09/25 10:07:04;;;;;;;2.38;1.90;;;;;;;;;;5069709;28;20037;-59
2023/09/25 10:09:30;;;;;;;3.72;2.70;;;;;;;;;;5057955;28;20498;-59
2023/09/25 10:11:55;;;;;;;2.33;1.80;;;;;;;;;;5042035;28;20125;-59
2023/09/25 10:14:21;;;;;;;3.95;2.25;;;;;;;;;;5047371;28;20021;-59
2023/09/25 10:16:57;;;;;;;4.68;3.20;;;;;;;;;;5045455;28;20045;-59
2023/09/25 10:19:32;;;;;;;5.80;2.13;;;;;;;;;;5051606;28;20027;-59
2023/09/25 10:22:12;;;;;;;6.72;2.45;;;;;;;;;;5065088;28;20025;-59
2023/09/25 10:24:38;;;;;;;3.17;2.30;;;;;;;;;;5068495;28;20035;-59
2023/09/25 10:27:03;;;;;;;3.92;2.42;;;;;;;;;;5041522;28;20033;-59
2023/09/25 10:29:29;;;;;;;9.50;2.25;;;;;;;;;;5052050;28;20100;-59
2023/09/25 10:31:54;;;;;;;2.53;1.77;;;;;;;;;;5049455;28;20122;-59
2023/09/25 10:34:21;;;;;;;2.50;1.93;;;;;;;;;;5050427;28;20053;-59
2023/09/25 10:36:47;;;;;;;3.50;2.70;;;;;;;;;;5048653;28;20037;-59
2023/09/25 10:39:16;;;;;;;5.63;2.30;;;;;;;;;;5051840;28;20562;-59
2023/09/25 10:41:47;;;;;;;2.42;1.88;;;;;;;;;;5064365;28;20032;-57
2023/09/25 10:44:12;;;;;;;5.93;2.17;;;;;;;;;;5072130;28;20020;-58
2023/09/25 10:46:38;;;;;;;4.80;2.28;;;;;;;;;;5069896;28;20602;-57
2023/09/25 10:49:03;;;;;;;3.63;2.78;;;;;;;;;;5070481;28;20074;-59
2023/09/25 10:51:28;;;;;;;3.38;2.15;;;;;;;;;;5068994;28;20029;-58
2023/09/25 10:53:54;;;;;;;3.42;2.40;;;;;;;;;;5071423;28;20028;-58
2023/09/25 10:56:19;;;;;;;7.05;2.15;;;;;;;;;;5069503;28;20043;-58
2023/09/25 10:58:47;;;;;;;4.93;2.17;;;;;;;;;;5071488;28;20089;-57
2023/09/25 11:01:12;;;;;;;;;;;;;;;;;;5070974;28;20102;-58
2023/09/25 11:03:38;;;;;;;4.00;2.35;;;;;;;;;;5070987;28;19904;-58
2023/09/25 11:06:03;;;;;;;8.20;2.33;;;;;;;;;;5070037;28;20028;-58
2023/09/25 11:08:28;;;;;;;4.07;2.43;;;;;;;;;;5071429;28;20044;-58
2023/09/25 11:10:53;;;;;;;4.97;1.67;;;;;;;;;;5069445;28;20620;-68
2023/09/25 11:13:20;;;;;;;4.25;2.30;;;;;;;;;;5066303;28;20069;-58
2023/09/25 11:15:45;;;;;;;3.50;2.30;;;;;;;;;;5069440;28;20039;-58
2023/09/25 11:18:11;;;;;;;3.88;2.70;;;;;;;;;;5070813;28;20399;-58
2023/09/25 11:20:41;;;;;;;2.88;1.95;;;;;;;;;;5069786;28;20067;-58
2023/09/25 11:23:08;;;;;;;4.93;2.80;;;;;;;;;;5071283;28;20025;-58
2023/09/25 11:25:41;;;;;;;6.95;2.92;;;;;;;;;;5069644;28;20029;-58
2023/09/25 11:28:07;;;;;;;5.85;2.60;;;;;;;;;;5071471;28;20099;-58
2023/09/25 11:30:32;;;;;;;3.47;2.30;;;;;;;;;;5069717;28;20503;-59
2023/09/25 11:33:02;;;;;;;2.17;1.70;;;;;;;;;;5069961;28;20051;-59
2023/09/25 11:35:27;;;;;;;4.97;2.88;;;;;;;;;;5069312;28;20544;-58
2023/09/25 11:37:54;;;;;;;5.30;2.80;;;;;;;;;;5070897;28;20024;-58
2023/09/25 11:40:19;;;;;;;7.90;3.35;;;;;;;;;;5067943;28;20052;-58
2023/09/25 11:42:44;;;;;;;6.38;3.65;;;;;;;;;;5070710;28;20483;-58
2023/09/25 11:45:12;;;;;;;3.08;1.83;;;;;;;;;;5069569;28;20021;-59
2023/09/25 11:47:37;;;;;;;3.30;2.13;;;;;;;;;;5070009;28;20483;-62
2023/09/25 11:50:02;;;;;;;7.90;2.23;;;;;;;;;;5069286;28;20024;-58
2023/09/25 11:52:28;;;;;;;3.85;2.28;;;;;;;;;;5070739;28;20074;-58
2023/09/25 11:54:54;;;;;;;5.22;2.08;;;;;;;;;;5070220;28;20871;-58
2023/09/25 11:57:19;;;;;;;8.80;2.75;;;;;;;;;;5069231;28;20059;-58
2023/09/25 11:59:44;;;;;;;2.45;2.17;;;;;;;;;;5070728;28;20025;-58
2023/09/25 12:02:11;;;;;;;14.47;2.40;;;;;;;;;;5068768;28;20132;-58
2023/09/25 12:04:38;;;;;;;4.28;2.10;;;;;;;;;;5070375;28;20431;-59
2023/09/25 12:07:03;;;;;;;2.38;2.05;;;;;;;;;;5068943;28;20407;-58
2023/09/25 12:09:28;;;;;;;4.57;2.08;;;;;;;;;;5070308;28;20025;-59
2023/09/25 12:11:53;;;;;;;8.13;2.17;;;;;;;;;;5068694;28;20045;-64
2023/09/25 12:14:19;;;;;;;4.53;2.33;;;;;;;;;;5070807;28;20062;-58
2023/09/25 12:16:44;;;;;;;3.75;2.35;;;;;;;;;;5068528;28;20062;-59
2023/09/25 12:19:09;;;;;;;2.00;1.73;;;;;;;;;;5069189;28;20122;-59
2023/09/25 12:21:34;;;;;;;5.35;2.25;;;;;;;;;;5068878;28;20566;-69
2023/09/25 12:24:00;;;;;;;4.50;1.77;;;;;;;;;;5070007;28;20032;-59
2023/09/25 12:26:26;;;;;;;4.03;2.22;;;;;;;;;;5069098;28;20033;-59
2023/09/25 12:28:51;;;;;;;7.68;1.98;;;;;;;;;;5070029;28;20059;-58
2023/09/25 12:31:16;;;;;;;4.93;1.30;;;;;;;;;;5068071;28;20511;-59
2023/09/25 12:33:41;;;;;;;6.23;2.47;;;;;;;;;;5065588;28;20074;-59
2023/09/25 12:36:07;;;;;;;3.88;1.90;;;;;;;;;;5058234;28;20536;-58
2023/09/25 12:38:32;;;;;;;5.93;2.63;;;;;;;;;;5049806;28;20025;-59
2023/09/25 12:40:57;;;;;;;2.80;2.15;;;;;;;;;;5056807;28;20506;-59
2023/09/25 12:43:22;;;;;;;2.88;2.28;;;;;;;;;;5070202;28;20020;-58
2023/09/25 12:45:47;;;;;;;5.28;1.75;;;;;;;;;;5062094;28;20037;-59
2023/09/25 12:48:12;;;;;;;3.50;1.60;;;;;;;;;;5054169;28;20023;-59
2023/09/25 12:50:37;;;;;;;5.70;2.22;;;;;;;;;;5058076;28;20051;-59
2023/09/25 12:53:03;;;;;;;6.25;2.65;;;;;;;;;;5074254;28;20533;-59
2023/09/25 12:55:31;;;;;;;4.65;1.90;;;;;;;;;;5068073;28;20032;-60
2023/09/25 12:57:56;;;;;;;8.88;3.78;;;;;;;;;;5054246;28;20077;-60
2023/09/25 13:00:24;;;;;;;2.55;2.15;;;;;;;;;;5055447;28;20028;-59
2023/09/25 13:02:50;;;;;;;2.03;1.52;;;;;;;;;;5073408;28;20538;-59
2023/09/25 13:05:15;;;;;;;5.18;1.92;;;;;;;;;;5071234;28;20099;-59
2023/09/25 13:07:40;;;;;;;5.23;1.93;;;;;;;;;;5070304;28;20047;-59
2023/09/25 13:10:07;;;;;;;5.82;1.77;;;;;;;;;;5071623;28;20016;-59
2023/09/25 13:12:32;;;;;;;7.60;2.42;;;;;;;;;;5073988;28;20027;-59
2023/09/25 13:14:58;;;;;;;2.17;1.80;;;;;;;;;;5073555;28;20024;-59
2023/09/25 13:17:23;;;;;;;6.93;2.78;;;;;;;;;;5072130;28;20462;-59
2023/09/25 13:19:48;;;;;;;3.53;2.35;;;;;;;;;;5073525;28;20028;-59
2023/09/25 13:22:14;;;;;;;2.23;1.70;;;;;;;;;;5072524;28;20067;-59
2023/09/25 13:24:39;;;;;;;4.00;2.17;;;;;;;;;;5072960;28;20460;-64
2023/09/25 13:27:06;;;;;;;5.60;2.37;;;;;;;;;;5072097;28;20039;-59
2023/09/25 13:29:31;;;;;;;5.03;2.10;;;;;;;;;;5072069;28;20976;-59
2023/09/25 13:31:56;;;;;;;1.57;1.47;;;;;;;;;;5071464;28;20043;-59
2023/09/25 13:34:21;;;;;;;4.30;2.03;;;;;;;;;;5073143;28;20045;-59
2023/09/25 13:36:48;;;;;;;2.53;1.83;;;;;;;;;;5071858;28;20037;-59
2023/09/25 13:39:14;;;;;;;1.95;1.35;;;;;;;;;;5073262;28;20108;-59
2023/09/25 13:41:39;;;;;;;4.82;2.00;;;;;;;;;;5071480;28;20115;-60
2023/09/25 13:44:04;;;;;;;3.10;2.22;;;;;;;;;;5073574;28;20070;-59
2023/09/25 13:46:30;;;;;;;3.22;1.50;;;;;;;;;;5071298;28;20039;-60
2023/09/25 13:48:55;;;;;;;3.65;2.65;;;;;;;;;;5072968;28;20027;-59
2023/09/25 13:51:20;;;;;;;2.85;1.65;;;;;;;;;;5071731;28;20132;-59
2023/09/25 13:53:45;;;;;;;1.90;1.63;;;;;;;;;;5072715;28;20416;-59
2023/09/25 13:56:10;;;;;;;2.35;1.83;;;;;;;;;;5071003;28;20451;-59
2023/09/25 13:58:35;;;;;;;2.90;2.22;;;;;;;;;;5072774;28;20024;-59
2023/09/25 14:01:02;;;;;;;3.67;1.30;;;;;;;;;;5071215;28;20115;-60
2023/09/25 14:03:28;;;;;;;2.22;1.73;;;;;;;;;;5072817;28;20456;-59
2023/09/25 14:05:53;;;;;;;6.25;2.28;;;;;;;;;;5071195;28;20046;-59
2023/09/25 14:08:18;;;;;;;3.30;1.63;;;;;;;;;;5072848;28;20469;-59
2023/09/25 14:10:43;;;;;;;2.80;1.73;;;;;;;;;;5070689;28;20916;-58
2023/09/25 14:13:09;;;;;;;7.75;2.35;;;;;;;;;;5071094;28;20013;-60
2023/09/25 14:15:34;;;;;;;6.50;2.08;;;;;;;;;;5067569;28;20043;-64
2023/09/25 14:18:00;;;;;;;4.55;1.77;;;;;;;;;;5052864;28;20033;-59
2023/09/25 14:20:25;;;;;;;1.48;1.38;;;;;;;;;;5054736;28;20449;-59
2023/09/25 14:22:50;;;;;;;2.43;1.83;;;;;;;;;;5071885;28;20020;-59
2023/09/25 14:25:16;;;;;;;5.47;1.33;;;;;;;;;;5070999;28;20688;-59
2023/09/25 14:27:41;;;;;;;2.35;1.70;;;;;;;;;;5072203;28;20016;-58
2023/09/25 14:30:06;;;;;;;1.47;1.37;;;;;;;;;;5065335;28;20032;-59
2023/09/25 14:32:32;;;;;;;5.50;3.83;;;;;;;;;;5051647;28;20045;-58
2023/09/25 14:34:57;;;;;;;3.20;2.17;;;;;;;;;;5052171;28;20388;-73